Time;durP1;ratioP1;P1;durP2;ratioP2;P2;SDS_P1;SDS_P2;PMS_P1;PMS_P2;Temp;Humidity;BMP_temperature;BMP_pressure;BME280_temperature;BME280_humidity;BME280_pressure;Samples;Min_cycle;Max_cycle;Signal;HPM_P1;HPM_P2
2022/09/10 00:01:39;;;;;;;14.63;8.25;;;;;;;;;;6179912;23;20529;-77
2022/09/10 00:04:14;;;;;;;13.60;8.07;;;;;;;;;;6180793;23;20087;-76
2022/09/10 00:06:42;;;;;;;11.65;7.95;;;;;;;;;;6180058;23;20021;-76
2022/09/10 00:09:09;;;;;;;14.68;7.55;;;;;;;;;;6179135;23;20409;-77
2022/09/10 00:11:44;;;;;;;12.75;7.65;;;;;;;;;;6181266;23;20028;-76
2022/09/10 00:14:14;;;;;;;14.40;7.70;;;;;;;;;;6179301;23;20099;-77
2022/09/10 00:16:41;;;;;;;12.38;7.85;;;;;;;;;;6179256;23;20017;-76
2022/09/10 00:19:15;;;;;;;10.77;7.40;;;;;;;;;;6181179;23;20096;-76
2022/09/10 00:21:45;;;;;;;10.60;8.20;;;;;;;;;;6179172;23;20100;-76
2022/09/10 00:24:13;;;;;;;11.68;8.00;;;;;;;;;;6178540;23;20067;-76
2022/09/10 00:27:00;;;;;;;10.35;7.68;;;;;;;;;;6180029;23;20028;-76
2022/09/10 00:29:34;;;;;;;11.13;8.05;;;;;;;;;;6178428;23;20092;-76
2022/09/10 00:32:08;;;;;;;10.45;7.95;;;;;;;;;;6179902;23;20096;-77
2022/09/10 00:34:35;;;;;;;;;;;;;;;;;;6178304;23;20462;-77
2022/09/10 00:37:02;;;;;;;12.85;7.97;;;;;;;;;;6152916;23;19920;-77
2022/09/10 00:39:37;;;;;;;10.55;8.00;;;;;;;;;;6179064;23;20528;-76
2022/09/10 00:42:05;;;;;;;11.38;8.00;;;;;;;;;;6179449;23;20021;-76
2022/09/10 00:44:35;;;;;;;8.93;7.50;;;;;;;;;;6179599;23;20024;-76
2022/09/10 00:47:13;;;;;;;11.38;8.40;;;;;;;;;;6178222;23;20108;-77
2022/09/10 00:49:43;;;;;;;15.30;8.63;;;;;;;;;;6180359;23;20096;-77
2022/09/10 00:52:17;;;;;;;10.95;7.55;;;;;;;;;;6179683;23;20027;-76
2022/09/10 00:54:45;;;;;;;9.20;7.43;;;;;;;;;;6179603;23;20393;-77
2022/09/10 00:57:12;;;;;;;;;;;;;;;;;;6182235;23;20285;-77
2022/09/10 00:59:48;;;;;;;15.90;7.82;;;;;;;;;;6180710;23;19924;-77
2022/09/10 01:02:15;;;;;;;11.20;7.68;;;;;;;;;;6156056;23;20498;-77
2022/09/10 01:04:43;;;;;;;10.07;7.60;;;;;;;;;;6155916;23;20095;-77
2022/09/10 01:07:20;;;;;;;9.75;7.60;;;;;;;;;;6182860;23;20040;-77
2022/09/10 01:09:47;;;;;;;10.65;7.88;;;;;;;;;;6181355;23;20029;-77
2022/09/10 01:12:34;;;;;;;16.73;8.35;;;;;;;;;;6181323;23;20079;-76
2022/09/10 01:15:14;;;;;;;10.98;8.35;;;;;;;;;;6182242;23;20027;-77
2022/09/10 01:17:54;;;;;;;12.13;8.15;;;;;;;;;;6181871;23;20025;-77
2022/09/10 01:20:34;;;;;;;11.20;7.68;;;;;;;;;;6180846;23;20095;-76
2022/09/10 01:23:13;;;;;;;10.52;7.95;;;;;;;;;;6182468;23;20104;-77
2022/09/10 01:26:03;;;;;;;12.40;7.60;;;;;;;;;;6155145;23;20035;-77
2022/09/10 01:29:02;;;;;;;11.50;7.13;;;;;;;;;;6180969;23;20096;-77
2022/09/10 01:31:53;;;;;;;11.35;7.35;;;;;;;;;;6131635;23;20040;-78
2022/09/10 01:34:28;;;;;;;10.20;7.22;;;;;;;;;;6180739;23;20025;-77
2022/09/10 01:37:08;;;;;;;9.02;7.10;;;;;;;;;;6181946;23;20021;-76
2022/09/10 01:39:37;;;;;;;11.02;7.10;;;;;;;;;;6180233;23;20101;-77
2022/09/10 01:42:11;;;;;;;12.50;7.13;;;;;;;;;;6181443;23;20084;-76
2022/09/10 01:44:46;;;;;;;11.18;7.57;;;;;;;;;;6180298;23;20116;-77
2022/09/10 01:47:30;;;;;;;9.85;7.00;;;;;;;;;;6179102;23;20152;-77
2022/09/10 01:50:20;;;;;;;10.13;7.47;;;;;;;;;;6181728;23;20036;-76
2022/09/10 01:53:18;;;;;;;10.23;7.10;;;;;;;;;;6119791;23;20359;-77
2022/09/10 01:55:48;;;;;;;14.00;6.85;;;;;;;;;;6180818;23;20028;-77
2022/09/10 01:58:42;;;;;;;11.60;7.53;;;;;;;;;;6180921;23;20029;-76
2022/09/10 02:01:10;;;;;;;10.90;7.63;;;;;;;;;;6178918;23;20127;-77
2022/09/10 02:03:46;;;;;;;14.05;7.57;;;;;;;;;;6180832;23;20029;-77
2022/09/10 02:06:15;;;;;;;11.85;7.15;;;;;;;;;;6180764;23;20481;-76
2022/09/10 02:08:44;;;;;;;11.35;7.80;;;;;;;;;;6178728;23;20027;-77
2022/09/10 02:11:18;;;;;;;9.77;6.78;;;;;;;;;;6180755;23;20028;-77
2022/09/10 02:13:45;;;;;;;12.88;7.32;;;;;;;;;;6131465;23;20100;-76
2022/09/10 02:16:15;;;;;;;10.35;7.68;;;;;;;;;;6180654;23;20346;-77
2022/09/10 02:18:49;;;;;;;12.13;7.63;;;;;;;;;;6181469;23;20032;-77
2022/09/10 02:21:17;;;;;;;14.27;7.50;;;;;;;;;;6181296;23;20351;-76
2022/09/10 02:23:45;;;;;;;12.80;7.32;;;;;;;;;;6181462;23;20103;-76
2022/09/10 02:26:19;;;;;;;11.60;7.40;;;;;;;;;;6180693;23;20025;-78
2022/09/10 02:28:53;;;;;;;11.68;7.93;;;;;;;;;;6180985;23;20103;-77
2022/09/10 02:31:27;;;;;;;9.88;7.50;;;;;;;;;;6180662;23;20025;-77
2022/09/10 02:33:54;;;;;;;12.45;7.88;;;;;;;;;;6182101;23;20032;-77
2022/09/10 02:36:24;;;;;;;9.43;7.68;;;;;;;;;;6181304;23;20362;-77
2022/09/10 02:38:59;;;;;;;14.98;7.75;;;;;;;;;;6181097;23;20031;-77
2022/09/10 02:41:26;;;;;;;12.02;7.90;;;;;;;;;;6181971;23;20063;-77
2022/09/10 02:43:54;;;;;;;12.27;7.50;;;;;;;;;;6180866;23;20162;-77
2022/09/10 02:46:28;;;;;;;14.52;7.85;;;;;;;;;;6180551;23;20109;-77
2022/09/10 02:48:55;;;;;;;11.43;8.20;;;;;;;;;;6180954;23;20024;-77
2022/09/10 02:51:23;;;;;;;12.52;7.82;;;;;;;;;;6180964;23;20383;-77
2022/09/10 02:53:58;;;;;;;13.45;8.05;;;;;;;;;;6156436;23;20031;-77
2022/09/10 02:56:25;;;;;;;14.63;7.97;;;;;;;;;;6181932;23;20340;-77
2022/09/10 02:58:52;;;;;;;11.38;8.07;;;;;;;;;;6182689;23;20027;-77
2022/09/10 03:01:27;;;;;;;11.90;8.27;;;;;;;;;;6180637;23;20027;-77
2022/09/10 03:03:55;;;;;;;12.13;7.47;;;;;;;;;;6181804;23;20025;-77
2022/09/10 03:06:23;;;;;;;11.32;7.63;;;;;;;;;;6180755;23;20052;-77
2022/09/10 03:08:57;;;;;;;11.00;8.27;;;;;;;;;;6181230;23;20021;-77
2022/09/10 03:11:26;;;;;;;15.60;8.68;;;;;;;;;;6181325;23;20099;-77
2022/09/10 03:13:53;;;;;;;14.65;8.80;;;;;;;;;;6181865;23;20029;-76
2022/09/10 03:16:27;;;;;;;12.75;7.85;;;;;;;;;;6156376;23;20021;-77
2022/09/10 03:18:54;;;;;;;13.25;8.15;;;;;;;;;;6181513;23;20079;-77
2022/09/10 03:21:23;;;;;;;15.32;8.13;;;;;;;;;;6181213;23;20017;-77
2022/09/10 03:23:57;;;;;;;16.55;8.63;;;;;;;;;;6156840;23;20025;-76
2022/09/10 03:26:24;;;;;;;13.38;8.30;;;;;;;;;;6154426;23;20017;-77
2022/09/10 03:28:58;;;;;;;11.27;7.90;;;;;;;;;;6177472;23;20422;-76
2022/09/10 03:31:31;;;;;;;14.18;8.10;;;;;;;;;;6181638;23;20035;-77
2022/09/10 03:33:58;;;;;;;14.32;7.43;;;;;;;;;;6180218;23;20462;-76
2022/09/10 03:36:30;;;;;;;13.45;8.23;;;;;;;;;;6179847;23;20096;-77
2022/09/10 03:39:04;;;;;;;15.15;6.88;;;;;;;;;;6179158;23;20017;-76
2022/09/10 03:41:31;;;;;;;12.52;7.45;;;;;;;;;;6180176;23;20104;-76
2022/09/10 03:43:59;;;;;;;13.50;7.57;;;;;;;;;;6180105;23;20044;-76
2022/09/10 03:46:33;;;;;;;10.10;6.80;;;;;;;;;;6179817;23;20095;-77
2022/09/10 03:49:01;;;;;;;12.63;7.85;;;;;;;;;;6180857;23;20040;-76
2022/09/10 03:51:29;;;;;;;11.02;7.40;;;;;;;;;;6181038;23;20067;-77
2022/09/10 03:54:04;;;;;;;13.15;6.93;;;;;;;;;;6181605;23;20031;-76
2022/09/10 03:56:32;;;;;;;10.05;6.97;;;;;;;;;;6181257;23;20403;-77
2022/09/10 03:59:00;;;;;;;10.20;6.97;;;;;;;;;;6180584;23;20025;-76
2022/09/10 04:01:34;;;;;;;11.25;6.78;;;;;;;;;;6180508;23;20080;-76
2022/09/10 04:04:01;;;;;;;11.07;6.90;;;;;;;;;;6181130;23;20104;-77
2022/09/10 04:06:31;;;;;;;12.65;6.80;;;;;;;;;;6180504;23;20099;-77
2022/09/10 04:09:05;;;;;;;8.40;6.53;;;;;;;;;;6181855;23;20017;-76
2022/09/10 04:11:32;;;;;;;8.43;6.53;;;;;;;;;;6180261;23;20474;-77
2022/09/10 04:14:00;;;;;;;11.13;6.35;;;;;;;;;;6181567;23;20104;-77
2022/09/10 04:16:34;;;;;;;10.70;6.40;;;;;;;;;;6181204;23;20128;-77
2022/09/10 04:19:02;;;;;;;10.88;6.15;;;;;;;;;;6180701;23;20021;-77
2022/09/10 04:21:30;;;;;;;8.13;6.18;;;;;;;;;;6180051;23;20035;-77
2022/09/10 04:24:05;;;;;;;10.52;6.40;;;;;;;;;;6181149;23;20349;-77
2022/09/10 04:26:32;;;;;;;9.88;6.00;;;;;;;;;;6179470;23;20027;-78
2022/09/10 04:29:06;;;;;;;9.95;5.93;;;;;;;;;;6179954;23;20035;-77
2022/09/10 04:31:41;;;;;;;11.75;6.05;;;;;;;;;;6181321;23;20534;-77
2022/09/10 04:34:08;;;;;;;11.07;5.97;;;;;;;;;;6181676;23;20087;-77
2022/09/10 04:36:35;;;;;;;12.40;6.72;;;;;;;;;;6180481;23;20091;-77
2022/09/10 04:39:09;;;;;;;11.27;6.63;;;;;;;;;;6181407;23;20032;-77
2022/09/10 04:41:36;;;;;;;13.25;7.13;;;;;;;;;;6181142;23;20092;-78
2022/09/10 04:44:03;;;;;;;9.75;6.15;;;;;;;;;;6179132;23;20025;-77
2022/09/10 04:46:37;;;;;;;12.55;6.88;;;;;;;;;;6180095;23;20352;-77
2022/09/10 04:49:04;;;;;;;12.70;7.82;;;;;;;;;;6180703;23;20113;-77
2022/09/10 04:51:32;;;;;;;13.18;7.13;;;;;;;;;;6180155;23;20061;-77
2022/09/10 04:54:06;;;;;;;12.30;6.85;;;;;;;;;;6180636;23;20116;-77
2022/09/10 04:56:33;;;;;;;11.80;6.32;;;;;;;;;;6153591;23;20052;-77
2022/09/10 04:59:01;;;;;;;12.32;6.55;;;;;;;;;;6154441;23;20053;-77
2022/09/10 05:01:35;;;;;;;15.20;7.03;;;;;;;;;;6155589;23;20043;-77
2022/09/10 05:04:03;;;;;;;13.38;6.47;;;;;;;;;;6180281;23;20032;-76
2022/09/10 05:06:30;;;;;;;7.55;5.22;;;;;;;;;;6153113;23;20027;-77
2022/09/10 05:09:04;;;;;;;15.05;6.22;;;;;;;;;;6180709;23;20539;-76
2022/09/10 05:11:31;;;;;;;11.70;6.15;;;;;;;;;;6155023;23;20092;-78
2022/09/10 05:13:58;;;;;;;9.43;5.10;;;;;;;;;;6153323;23;20029;-77
2022/09/10 05:16:32;;;;;;;8.32;5.03;;;;;;;;;;6154715;23;20474;-77
2022/09/10 05:18:59;;;;;;;9.90;6.15;;;;;;;;;;6181032;23;20052;-78
2022/09/10 05:21:28;;;;;;;8.82;5.22;;;;;;;;;;6178710;23;20031;-77
2022/09/10 05:24:01;;;;;;;8.48;5.45;;;;;;;;;;6179724;23;20100;-76
2022/09/10 05:26:28;;;;;;;11.43;5.72;;;;;;;;;;6179944;23;20024;-77
2022/09/10 05:28:58;;;;;;;11.05;5.38;;;;;;;;;;6178850;23;20100;-76
2022/09/10 05:31:32;;;;;;;10.18;5.40;;;;;;;;;;6154725;23;20349;-76
2022/09/10 05:34:00;;;;;;;;;;;;;;;;;;6181164;23;20025;-77
2022/09/10 05:36:33;;;;;;;10.60;5.95;;;;;;;;;;6154871;23;19995;-77
2022/09/10 05:39:07;;;;;;;8.48;5.88;;;;;;;;;;6181640;23;20032;-76
2022/09/10 05:41:36;;;;;;;12.02;6.07;;;;;;;;;;6180551;23;20029;-77
2022/09/10 05:44:04;;;;;;;9.90;6.43;;;;;;;;;;6180952;23;20104;-77
2022/09/10 05:46:37;;;;;;;13.80;6.25;;;;;;;;;;6180593;23;20411;-76
2022/09/10 05:49:04;;;;;;;11.35;6.15;;;;;;;;;;6182599;23;20096;-76
2022/09/10 05:51:31;;;;;;;10.02;6.78;;;;;;;;;;6181437;23;20512;-76
2022/09/10 05:54:05;;;;;;;10.98;5.90;;;;;;;;;;6181017;23;20023;-77
2022/09/10 05:56:33;;;;;;;11.93;6.10;;;;;;;;;;6181518;23;20028;-75
2022/09/10 05:59:02;;;;;;;11.05;6.20;;;;;;;;;;6154922;23;20017;-77
2022/09/10 06:01:37;;;;;;;7.80;5.65;;;;;;;;;;6181451;23;20047;-77
2022/09/10 06:04:04;;;;;;;10.52;6.43;;;;;;;;;;6181947;23;20398;-77
2022/09/10 06:06:31;;;;;;;8.75;5.90;;;;;;;;;;6181078;23;20021;-76
2022/09/10 06:09:05;;;;;;;12.48;6.55;;;;;;;;;;6181573;23;20060;-77
2022/09/10 06:11:33;;;;;;;10.73;6.53;;;;;;;;;;6155784;23;20096;-77
2022/09/10 06:14:00;;;;;;;7.75;5.53;;;;;;;;;;6154999;23;20052;-77
2022/09/10 06:16:34;;;;;;;10.15;6.30;;;;;;;;;;6181947;23;20023;-77
2022/09/10 06:19:01;;;;;;;15.85;6.88;;;;;;;;;;6181285;23;20104;-76
2022/09/10 06:21:28;;;;;;;8.70;5.70;;;;;;;;;;6179544;23;20132;-77
2022/09/10 06:24:02;;;;;;;13.48;7.20;;;;;;;;;;6180574;23;20035;-76
2022/09/10 06:26:29;;;;;;;9.07;5.70;;;;;;;;;;6179859;23;20031;-77
2022/09/10 06:28:56;;;;;;;14.50;6.13;;;;;;;;;;6180207;23;20349;-77
2022/09/10 06:31:30;;;;;;;12.13;6.38;;;;;;;;;;6157421;23;20020;-78
2022/09/10 06:33:58;;;;;;;11.93;5.63;;;;;;;;;;6181184;23;20545;-77
2022/09/10 06:36:27;;;;;;;10.50;6.07;;;;;;;;;;6180610;23;20021;-77
2022/09/10 06:39:03;;;;;;;12.80;6.40;;;;;;;;;;6182059;23;20021;-76
2022/09/10 06:41:30;;;;;;;10.20;6.63;;;;;;;;;;6179697;23;20413;-76
2022/09/10 06:43:57;;;;;;;12.07;5.95;;;;;;;;;;6181545;23;20470;-77
2022/09/10 06:46:31;;;;;;;18.08;7.15;;;;;;;;;;6181334;23;20021;-77
2022/09/10 06:49:18;;;;;;;11.73;5.38;;;;;;;;;;6180403;23;20451;-77
2022/09/10 06:51:52;;;;;;;9.32;6.43;;;;;;;;;;6181569;23;20021;-77
2022/09/10 06:54:19;;;;;;;10.57;5.93;;;;;;;;;;6178869;23;20027;-77
2022/09/10 06:56:50;;;;;;;8.23;5.80;;;;;;;;;;6181068;23;20128;-77
2022/09/10 06:59:23;;;;;;;11.30;5.72;;;;;;;;;;6182449;23;20025;-77
2022/09/10 07:01:50;;;;;;;11.38;5.30;;;;;;;;;;6181486;23;20025;-77
2022/09/10 07:04:18;;;;;;;8.70;5.38;;;;;;;;;;6181839;23;20079;-77
2022/09/10 07:06:52;;;;;;;9.70;5.15;;;;;;;;;;6180918;23;20104;-76
2022/09/10 07:09:19;;;;;;;11.77;4.82;;;;;;;;;;6180807;23;20672;-77
2022/09/10 07:11:46;;;;;;;9.73;4.93;;;;;;;;;;6181311;23;20087;-77
2022/09/10 07:14:21;;;;;;;8.52;5.10;;;;;;;;;;6182129;23;20092;-77
2022/09/10 07:16:50;;;;;;;8.10;4.53;;;;;;;;;;6182347;23;20084;-78
2022/09/10 07:19:17;;;;;;;7.40;4.65;;;;;;;;;;6180733;23;20027;-77
2022/09/10 07:21:51;;;;;;;8.40;4.85;;;;;;;;;;6182231;23;20032;-77
2022/09/10 07:24:20;;;;;;;9.90;5.00;;;;;;;;;;6181634;23;20032;-77
2022/09/10 07:26:47;;;;;;;7.53;4.25;;;;;;;;;;6178645;23;20068;-77
2022/09/10 07:29:34;;;;;;;7.60;4.40;;;;;;;;;;6180422;23;20025;-78
2022/09/10 07:32:08;;;;;;;10.75;4.82;;;;;;;;;;6179824;23;20024;-77
2022/09/10 07:34:46;;;;;;;9.23;4.78;;;;;;;;;;6181152;23;20031;-77
2022/09/10 07:37:14;;;;;;;7.82;4.20;;;;;;;;;;6154849;23;20021;-77
2022/09/10 07:39:41;;;;;;;12.98;4.78;;;;;;;;;;6179785;23;20107;-77
2022/09/10 07:42:15;;;;;;;8.00;4.82;;;;;;;;;;6180141;23;20092;-77
2022/09/10 07:44:43;;;;;;;8.75;4.13;;;;;;;;;;6181456;23;20049;-77
2022/09/10 07:47:10;;;;;;;7.22;4.40;;;;;;;;;;6181672;23;20096;-77
2022/09/10 07:49:44;;;;;;;7.60;3.80;;;;;;;;;;6181314;23;20092;-77
2022/09/10 07:52:12;;;;;;;8.75;4.10;;;;;;;;;;6181268;23;20405;-77
2022/09/10 07:54:39;;;;;;;12.90;4.38;;;;;;;;;;6181040;23;20060;-77
2022/09/10 07:57:17;;;;;;;;;;;;;;;;;;6180970;23;20032;-76
2022/09/10 07:59:44;;;;;;;8.77;3.95;;;;;;;;;;6182063;23;19916;-77
2022/09/10 08:02:14;;;;;;;8.30;4.43;;;;;;;;;;6180586;23;20100;-77
2022/09/10 08:04:55;;;;;;;9.57;4.13;;;;;;;;;;6156283;23;20104;-77
2022/09/10 08:07:30;;;;;;;11.63;4.38;;;;;;;;;;6181398;23;20353;-77
2022/09/10 08:10:06;;;;;;;9.38;4.30;;;;;;;;;;6180758;23;20104;-77
2022/09/10 08:12:33;;;;;;;10.43;4.28;;;;;;;;;;6153779;23;20031;-77
2022/09/10 08:15:00;;;;;;;8.73;4.35;;;;;;;;;;6181792;23;20084;-77
2022/09/10 08:17:35;;;;;;;7.78;4.40;;;;;;;;;;6180740;23;20060;-76
2022/09/10 08:20:07;;;;;;;12.48;4.15;;;;;;;;;;6154644;23;20122;-77
2022/09/10 08:22:41;;;;;;;11.90;4.47;;;;;;;;;;6180680;23;20027;-77
2022/09/10 08:25:08;;;;;;;10.07;4.43;;;;;;;;;;6181449;23;20136;-76
2022/09/10 08:27:36;;;;;;;9.63;3.83;;;;;;;;;;6179839;23;20071;-76
2022/09/10 08:30:16;;;;;;;10.80;4.30;;;;;;;;;;6157370;23;20029;-77
2022/09/10 08:32:43;;;;;;;7.70;3.88;;;;;;;;;;6180958;23;20020;-76
2022/09/10 08:35:18;;;;;;;9.20;4.40;;;;;;;;;;6181000;23;20043;-77
2022/09/10 08:37:45;;;;;;;7.45;3.90;;;;;;;;;;6181595;23;20021;-77
2022/09/10 08:40:13;;;;;;;8.27;4.00;;;;;;;;;;6155529;23;20017;-76
2022/09/10 08:42:49;;;;;;;10.75;4.35;;;;;;;;;;6179993;23;20104;-76
2022/09/10 08:45:18;;;;;;;10.13;4.28;;;;;;;;;;6180715;23;20104;-76
2022/09/10 08:48:05;;;;;;;7.80;3.97;;;;;;;;;;6180315;23;20017;-77
2022/09/10 08:50:44;;;;;;;10.48;4.50;;;;;;;;;;6179997;23;20458;-76
2022/09/10 08:53:26;;;;;;;13.15;3.78;;;;;;;;;;6180726;23;20488;-76
2022/09/10 08:56:04;;;;;;;9.40;4.30;;;;;;;;;;6180530;23;20183;-76
2022/09/10 08:58:49;;;;;;;5.35;3.60;;;;;;;;;;6180443;23;20558;-76
2022/09/10 09:01:44;;;;;;;9.88;3.83;;;;;;;;;;6180014;23;20096;-76
2022/09/10 09:04:17;;;;;;;9.10;3.50;;;;;;;;;;6179503;23;20025;-76
2022/09/10 09:06:53;;;;;;;8.23;3.58;;;;;;;;;;6155534;23;20455;-76
2022/09/10 09:09:21;;;;;;;8.10;3.92;;;;;;;;;;6180804;23;20021;-76
2022/09/10 09:11:48;;;;;;;;;;;;;;;;;;6180159;23;20083;-76
2022/09/10 09:14:39;;;;;;;7.65;3.83;;;;;;;;;;6180431;23;19983;-76
2022/09/10 09:17:26;;;;;;;7.22;3.40;;;;;;;;;;6180513;23;20776;-76
2022/09/10 09:20:13;;;;;;;8.35;3.50;;;;;;;;;;6182696;23;20025;-76
2022/09/10 09:22:44;;;;;;;9.70;3.53;;;;;;;;;;6155509;23;20466;-75
2022/09/10 09:25:21;;;;;;;8.65;3.72;;;;;;;;;;6157454;23;20347;-76
2022/09/10 09:27:59;;;;;;;8.82;3.63;;;;;;;;;;6181261;23;20021;-76
2022/09/10 09:30:36;;;;;;;10.00;3.80;;;;;;;;;;6182765;23;20029;-75
2022/09/10 09:33:10;;;;;;;6.53;3.58;;;;;;;;;;6180058;23;20021;-75
2022/09/10 09:35:47;;;;;;;7.20;3.80;;;;;;;;;;6180926;23;20418;-76
2022/09/10 09:38:22;;;;;;;10.57;3.60;;;;;;;;;;6182751;23;20100;-75
2022/09/10 09:41:02;;;;;;;10.82;3.60;;;;;;;;;;6181243;23;20025;-76
2022/09/10 09:43:42;;;;;;;9.73;3.53;;;;;;;;;;6153813;23;20100;-76
2022/09/10 09:46:17;;;;;;;4.88;3.65;;;;;;;;;;6180165;23;20061;-77
2022/09/10 09:48:44;;;;;;;11.07;3.65;;;;;;;;;;6178713;23;20028;-76
2022/09/10 09:51:13;;;;;;;8.07;3.53;;;;;;;;;;6180549;23;20416;-76
2022/09/10 09:53:50;;;;;;;7.25;3.63;;;;;;;;;;6156911;23;20405;-76
2022/09/10 09:56:43;;;;;;;8.43;3.72;;;;;;;;;;6180367;23;20466;-76
2022/09/10 09:59:25;;;;;;;5.43;3.42;;;;;;;;;;6182068;23;20031;-75
2022/09/10 10:01:53;;;;;;;5.40;3.28;;;;;;;;;;6154027;23;20023;-76
2022/09/10 10:04:32;;;;;;;7.18;3.25;;;;;;;;;;6180764;23;20047;-76
2022/09/10 10:07:01;;;;;;;7.55;3.55;;;;;;;;;;6154323;23;20387;-76
2022/09/10 10:09:39;;;;;;;10.50;3.55;;;;;;;;;;6155245;23;20017;-76
2022/09/10 10:12:13;;;;;;;10.80;3.78;;;;;;;;;;6181316;23;20490;-75
2022/09/10 10:14:48;;;;;;;7.95;4.13;;;;;;;;;;6182087;23;20082;-76
2022/09/10 10:17:35;;;;;;;15.30;4.13;;;;;;;;;;6181291;23;20035;-75
2022/09/10 10:20:13;;;;;;;8.10;3.80;;;;;;;;;;6156585;23;20549;-76
2022/09/10 10:22:41;;;;;;;7.30;3.72;;;;;;;;;;6179867;23;20075;-75
2022/09/10 10:25:41;;;;;;;8.52;3.80;;;;;;;;;;6181695;23;20057;-75
2022/09/10 10:28:32;;;;;;;12.95;3.70;;;;;;;;;;6106817;23;20518;-75
2022/09/10 10:31:06;;;;;;;8.05;3.75;;;;;;;;;;6181054;23;20036;-75
2022/09/10 10:33:52;;;;;;;12.18;3.53;;;;;;;;;;6181123;23;20025;-75
2022/09/10 10:36:19;;;;;;;8.18;3.60;;;;;;;;;;6155435;23;20100;-75
2022/09/10 10:39:08;;;;;;;8.55;2.97;;;;;;;;;;6156182;23;20452;-75
2022/09/10 10:41:41;;;;;;;6.80;3.45;;;;;;;;;;6181904;23;20017;-75
2022/09/10 10:44:27;;;;;;;7.68;3.30;;;;;;;;;;6181408;23;20498;-75
2022/09/10 10:47:14;;;;;;;13.45;3.65;;;;;;;;;;6181326;23;20096;-75
2022/09/10 10:49:52;;;;;;;9.57;3.30;;;;;;;;;;6155421;23;20035;-75
2022/09/10 10:52:33;;;;;;;9.85;3.70;;;;;;;;;;6180405;23;20105;-75
2022/09/10 10:55:19;;;;;;;7.80;3.23;;;;;;;;;;6180812;23;20028;-75
2022/09/10 10:58:05;;;;;;;4.78;2.58;;;;;;;;;;6179214;23;20249;-74
2022/09/10 11:00:42;;;;;;;4.45;2.40;;;;;;;;;;6179852;23;20132;-75
2022/09/10 11:03:14;;;;;;;8.43;3.17;;;;;;;;;;6179951;23;20096;-75
2022/09/10 11:05:51;;;;;;;9.38;3.08;;;;;;;;;;6180357;23;20025;-75
2022/09/10 11:08:25;;;;;;;5.93;2.70;;;;;;;;;;6180349;23;20057;-75
2022/09/10 11:11:02;;;;;;;6.50;2.72;;;;;;;;;;6180596;23;20107;-75
2022/09/10 11:13:35;;;;;;;7.70;2.63;;;;;;;;;;6179634;23;20324;-75
2022/09/10 11:16:18;;;;;;;5.32;2.42;;;;;;;;;;6154585;23;20390;-75
2022/09/10 11:19:01;;;;;;;5.05;2.65;;;;;;;;;;6180432;23;20399;-75
2022/09/10 11:21:48;;;;;;;5.65;2.60;;;;;;;;;;6154915;23;20027;-75
2022/09/10 11:24:28;;;;;;;6.38;2.88;;;;;;;;;;6152823;23;20021;-75
2022/09/10 11:27:32;;;;;;;4.60;2.60;;;;;;;;;;6180517;23;20025;-75
2022/09/10 11:30:18;;;;;;;12.05;3.00;;;;;;;;;;6179528;23;20405;-75
2022/09/10 11:33:01;;;;;;;8.07;2.65;;;;;;;;;;6179264;23;20056;-75
2022/09/10 11:35:31;;;;;;;5.37;3.13;;;;;;;;;;6179761;23;20100;-75
2022/09/10 11:38:11;;;;;;;6.95;3.25;;;;;;;;;;6154553;23;20718;-75
2022/09/10 11:40:42;;;;;;;9.05;2.90;;;;;;;;;;6179920;23;20088;-74
2022/09/10 11:43:36;;;;;;;7.25;3.00;;;;;;;;;;6179330;23;20788;-74
2022/09/10 11:46:08;;;;;;;6.28;3.05;;;;;;;;;;6154479;23;20032;-75
2022/09/10 11:48:46;;;;;;;8.48;3.08;;;;;;;;;;6179824;23;20318;-75
2022/09/10 11:51:21;;;;;;;9.75;3.08;;;;;;;;;;6179480;23;20024;-74
2022/09/10 11:53:56;;;;;;;5.05;2.80;;;;;;;;;;6155311;23;20040;-75
2022/09/10 11:56:26;;;;;;;12.00;3.25;;;;;;;;;;6178677;23;20027;-75
2022/09/10 11:59:05;;;;;;;7.90;3.03;;;;;;;;;;6178638;23;20017;-75
2022/09/10 12:01:48;;;;;;;7.57;3.10;;;;;;;;;;6152205;23;20104;-75
2022/09/10 12:04:29;;;;;;;4.68;2.63;;;;;;;;;;6180210;23;20027;-74
2022/09/10 12:07:19;;;;;;;5.70;2.70;;;;;;;;;;6178394;23;20035;-75
2022/09/10 12:10:05;;;;;;;6.85;2.33;;;;;;;;;;6151592;23;20021;-74
2022/09/10 12:12:45;;;;;;;5.82;2.60;;;;;;;;;;6155104;23;20409;-75
2022/09/10 12:15:23;;;;;;;4.97;2.20;;;;;;;;;;6177334;23;20025;-75
2022/09/10 12:18:03;;;;;;;5.28;2.35;;;;;;;;;;6151722;23;20105;-75
2022/09/10 12:20:32;;;;;;;5.47;1.80;;;;;;;;;;6179116;23;20025;-75
2022/09/10 12:23:06;;;;;;;4.15;2.22;;;;;;;;;;6178780;23;20716;-75
2022/09/10 12:25:33;;;;;;;7.20;2.08;;;;;;;;;;6174292;23;20128;-75
2022/09/10 12:28:04;;;;;;;2.92;1.75;;;;;;;;;;6177477;23;20212;-76
2022/09/10 12:30:45;;;;;;;5.80;1.92;;;;;;;;;;6177315;23;20059;-76
2022/09/10 12:33:12;;;;;;;3.30;1.83;;;;;;;;;;6177684;23;20358;-76
2022/09/10 12:35:47;;;;;;;4.75;1.80;;;;;;;;;;6179316;23;20020;-75
2022/09/10 12:38:34;;;;;;;8.60;2.13;;;;;;;;;;6177734;23;20039;-75
2022/09/10 12:41:11;;;;;;;6.05;1.92;;;;;;;;;;6179027;23;20017;-75
2022/09/10 12:43:38;;;;;;;3.50;2.00;;;;;;;;;;6179751;23;20108;-74
2022/09/10 12:46:08;;;;;;;4.20;1.73;;;;;;;;;;6178851;23;20021;-75
2022/09/10 12:48:44;;;;;;;4.97;2.33;;;;;;;;;;6180111;23;20108;-74
2022/09/10 12:51:17;;;;;;;4.88;2.10;;;;;;;;;;6179044;23;20040;-75
2022/09/10 12:54:03;;;;;;;3.67;1.95;;;;;;;;;;6180593;23;20413;-74
2022/09/10 12:56:30;;;;;;;3.35;2.00;;;;;;;;;;6155607;23;20116;-75
2022/09/10 12:59:23;;;;;;;7.90;2.40;;;;;;;;;;6180361;23;20025;-75
2022/09/10 13:01:51;;;;;;;3.15;1.90;;;;;;;;;;6181060;23;20021;-75
2022/09/10 13:04:27;;;;;;;4.47;2.15;;;;;;;;;;6181563;23;20131;-75
2022/09/10 13:06:58;;;;;;;7.15;2.15;;;;;;;;;;6181210;23;20032;-75
2022/09/10 13:09:35;;;;;;;5.85;1.83;;;;;;;;;;6157333;23;20507;-74
2022/09/10 13:12:07;;;;;;;3.28;1.75;;;;;;;;;;6155752;23;20027;-75
2022/09/10 13:14:45;;;;;;;6.18;1.95;;;;;;;;;;6175034;23;20040;-75
2022/09/10 13:17:30;;;;;;;2.85;1.90;;;;;;;;;;6149596;23;20401;-74
2022/09/10 13:20:35;;;;;;;3.15;1.90;;;;;;;;;;6180675;23;20757;-74
2022/09/10 13:23:03;;;;;;;3.80;1.77;;;;;;;;;;6149315;23;20035;-76
2022/09/10 13:25:40;;;;;;;3.28;1.80;;;;;;;;;;6180438;23;20112;-75
2022/09/10 13:28:39;;;;;;;4.88;1.65;;;;;;;;;;6154750;23;20044;-75
2022/09/10 13:31:19;;;;;;;2.47;1.80;;;;;;;;;;6154949;23;20025;-75
2022/09/10 13:33:50;;;;;;;5.30;1.90;;;;;;;;;;6155071;23;20103;-75
2022/09/10 13:36:42;;;;;;;5.70;2.23;;;;;;;;;;6180396;23;20100;-75
2022/09/10 13:39:18;;;;;;;3.75;1.90;;;;;;;;;;6179359;23;20244;-74
2022/09/10 13:41:54;;;;;;;4.70;1.88;;;;;;;;;;6181076;23;20032;-74
2022/09/10 13:44:49;;;;;;;4.47;1.98;;;;;;;;;;6154087;23;20025;-75
2022/09/10 13:47:45;;;;;;;2.97;1.85;;;;;;;;;;6179523;23;20660;-75
2022/09/10 13:50:13;;;;;;;3.78;1.90;;;;;;;;;;6153889;23;20069;-75
2022/09/10 13:52:48;;;;;;;4.75;1.98;;;;;;;;;;6179272;23;20459;-75
2022/09/10 13:55:18;;;;;;;3.65;2.13;;;;;;;;;;6179869;23;20456;-74
2022/09/10 13:57:47;;;;;;;3.90;1.95;;;;;;;;;;6179486;23;20124;-75
2022/09/10 14:00:23;;;;;;;3.42;1.98;;;;;;;;;;6178995;23;20039;-75
2022/09/10 14:02:55;;;;;;;4.88;2.03;;;;;;;;;;6177381;23;20514;-75
2022/09/10 14:05:28;;;;;;;4.63;2.05;;;;;;;;;;6178218;23;20025;-75
2022/09/10 14:07:57;;;;;;;3.85;1.90;;;;;;;;;;6176316;23;20025;-75
2022/09/10 14:10:24;;;;;;;3.15;2.05;;;;;;;;;;6178737;23;20534;-75
2022/09/10 14:13:00;;;;;;;4.80;1.60;;;;;;;;;;6180763;23;20025;-75
2022/09/10 14:15:35;;;;;;;5.00;1.90;;;;;;;;;;6175753;23;20021;-75
2022/09/10 14:18:09;;;;;;;6.82;1.83;;;;;;;;;;6180876;23;20463;-75
2022/09/10 14:20:36;;;;;;;3.90;1.83;;;;;;;;;;6178493;23;20040;-74
2022/09/10 14:23:05;;;;;;;4.15;2.00;;;;;;;;;;6176031;23;20100;-75
2022/09/10 14:25:40;;;;;;;2.47;1.88;;;;;;;;;;6176537;23;20107;-75
2022/09/10 14:28:24;;;;;;;3.30;1.90;;;;;;;;;;6177783;23;20108;-75
2022/09/10 14:31:18;;;;;;;4.53;2.10;;;;;;;;;;6150166;23;20056;-74
2022/09/10 14:33:45;;;;;;;4.43;1.92;;;;;;;;;;6149447;23;20029;-75
2022/09/10 14:36:32;;;;;;;6.25;2.47;;;;;;;;;;6146163;23;20367;-75
2022/09/10 14:39:02;;;;;;;2.05;1.80;;;;;;;;;;6149128;23;20022;-74
2022/09/10 14:41:36;;;;;;;3.97;2.10;;;;;;;;;;6144335;23;20143;-74
2022/09/10 14:44:12;;;;;;;6.72;2.08;;;;;;;;;;6149843;23;20105;-75
2022/09/10 14:46:53;;;;;;;2.17;1.60;;;;;;;;;;6150904;23;20035;-75
2022/09/10 14:49:25;;;;;;;6.72;1.90;;;;;;;;;;6125205;23;20021;-76
2022/09/10 14:52:00;;;;;;;6.18;2.00;;;;;;;;;;6150480;23;20076;-75
2022/09/10 14:54:28;;;;;;;4.10;2.10;;;;;;;;;;6150473;23;20026;-75
2022/09/10 14:56:56;;;;;;;5.57;1.95;;;;;;;;;;6149816;23;20025;-76
2022/09/10 14:59:35;;;;;;;6.22;2.17;;;;;;;;;;6149224;23;20018;-75
2022/09/10 15:02:05;;;;;;;3.25;1.80;;;;;;;;;;6150332;23;20025;-75
2022/09/10 15:04:39;;;;;;;6.68;1.70;;;;;;;;;;6149826;23;20387;-75
2022/09/10 15:07:08;;;;;;;4.15;2.10;;;;;;;;;;6123781;23;20517;-75
2022/09/10 15:09:35;;;;;;;5.40;2.22;;;;;;;;;;6149412;23;20021;-75
2022/09/10 15:12:18;;;;;;;2.20;1.80;;;;;;;;;;6150534;23;20082;-75
2022/09/10 15:14:45;;;;;;;3.55;2.00;;;;;;;;;;6147175;23;20025;-75
2022/09/10 15:17:19;;;;;;;7.10;2.03;;;;;;;;;;6146482;23;20104;-74
2022/09/10 15:19:47;;;;;;;3.88;1.50;;;;;;;;;;6142636;23;20025;-75